TimeMST,TemperatureF,Dew PointF,Humidity,Sea Level PressureIn,VisibilityMPH,Wind Direction,Wind SpeedMPH,Gust SpeedMPH,PrecipitationIn,Events,Conditions,WindDirDegrees,DateUTC
12:15 AM,8.6,5.0,85,30.32,10.0,Calm,Calm,-,N/A,,Mostly Cloudy,0,2013-02-01 07:15:00
12:35 AM,6.8,-4.0,61,30.32,10.0,Calm,Calm,-,N/A,,Scattered Clouds,0,2013-02-01 07:35:00
12:55 AM,6.8,6.8,100,30.31,10.0,Calm,Calm,-,N/A,,Partly Cloudy,0,2013-02-01 07:55:00
1:35 AM,5.0,1.4,85,30.31,10.0,Calm,Calm,-,N/A,,Clear,0,2013-02-01 08:35:00
1:55 AM,3.2,-0.4,85,30.31,10.0,ENE,4.6,-,N/A,,Scattered Clouds,70,2013-02-01 08:55:00
2:15 AM,1.4,-7.6,66,30.32,10.0,ENE,4.6,-,N/A,,Mostly Cloudy,70,2013-02-01 09:15:00
2:35 AM,3.2,3.2,100,30.32,10.0,NE,4.6,-,N/A,,Overcast,50,2013-02-01 09:35:00
2:55 AM,3.2,-7.6,61,30.32,10.0,Calm,Calm,-,N/A,,Mostly Cloudy,0,2013-02-01 09:55:00
3:15 AM,1.4,-0.4,92,30.31,10.0,Calm,Calm,-,N/A,,Partly Cloudy,0,2013-02-01 10:15:00
3:55 AM,-0.4,-2.2,92,30.31,10.0,Calm,Calm,-,N/A,,Clear,0,2013-02-01 10:55:00
4:15 AM,1.4,-2.2,85,30.31,10.0,Calm,Calm,-,N/A,,Partly Cloudy,0,2013-02-01 11:15:00
4:35 AM,1.4,-2.2,85,30.30,10.0,Calm,Calm,-,N/A,,Partly Cloudy,0,2013-02-01 11:35:00
4:55 AM,-2.2,-7.6,78,30.30,10.0,Calm,Calm,-,N/A,,Clear,0,2013-02-01 11:55:00
5:15 AM,-2.2,-2.2,100,30.31,10.0,Calm,Calm,-,N/A,,Clear,0,2013-02-01 12:15:00
5:35 AM,-2.2,-11.2,66,30.30,10.0,Calm,Calm,-,N/A,,Clear,0,2013-02-01 12:35:00
5:55 AM,-2.2,-2.2,100,30.30,10.0,Calm,Calm,-,N/A,,Clear,0,2013-02-01 12:55:00
6:15 AM,-2.2,-9.4,71,30.30,10.0,Calm,Calm,-,N/A,,Partly Cloudy,0,2013-02-01 13:15:00
6:35 AM,-2.2,-5.8,85,30.30,10.0,Calm,Calm,-,N/A,,Clear,0,2013-02-01 13:35:00
7:15 AM,-4.0,-5.8,92,30.31,10.0,Calm,Calm,-,N/A,,Clear,0,2013-02-01 14:15:00
7:35 AM,-2.2,-5.8,85,30.32,9.0,Calm,Calm,-,N/A,,Mostly Cloudy,0,2013-02-01 14:35:00
7:55 AM,-5.8,-14.8,65,30.32,10.0,ENE,3.5,-,N/A,,Overcast,70,2013-02-01 14:55:00
8:15 AM,-4.0,-4.0,100,30.33,10.0,Calm,Calm,-,N/A,,Mostly Cloudy,0,2013-02-01 15:15:00
8:35 AM,-2.2,-7.6,78,30.33,10.0,Calm,Calm,-,N/A,,Overcast,0,2013-02-01 15:35:00
8:55 AM,-2.2,-2.2,100,30.33,10.0,East,3.5,-,N/A,,Scattered Clouds,90,2013-02-01 15:55:00
9:15 AM,-0.4,-2.2,92,30.34,10.0,Calm,Calm,-,N/A,,Clear,0,2013-02-01 16:15:00
9:55 AM,3.2,-7.6,61,30.34,10.0,Calm,Calm,-,N/A,,Clear,0,2013-02-01 16:55:00
10:15 AM,3.2,3.2,100,30.34,10.0,ESE,3.5,-,N/A,,Clear,120,2013-02-01 17:15:00
10:35 AM,6.8,5.0,92,30.33,10.0,Calm,Calm,-,N/A,,Clear,0,2013-02-01 17:35:00
11:15 AM,10.4,10.4,100,30.33,10.0,SE,3.5,-,N/A,,Clear,140,2013-02-01 18:15:00
11:35 AM,12.2,8.6,85,30.32,10.0,SSE,3.5,-,N/A,,Clear,150,2013-02-01 18:35:00
12:15 PM,15.8,3.2,58,30.30,10.0,Calm,Calm,-,N/A,,Clear,0,2013-02-01 19:15:00
12:55 PM,19.4,19.4,100,30.28,10.0,Calm,Calm,-,N/A,,Clear,0,2013-02-01 19:55:00
1:15 PM,19.4,15.8,86,30.27,10.0,SSE,4.6,-,N/A,,Clear,150,2013-02-01 20:15:00
1:35 PM,21.2,10.4,63,30.26,10.0,East,4.6,-,N/A,,Clear,100,2013-02-01 20:35:00
1:55 PM,21.2,8.6,58,30.26,10.0,East,3.5,-,N/A,,Clear,100,2013-02-01 20:55:00
2:15 PM,23.0,8.6,54,30.25,10.0,East,8.1,-,N/A,,Clear,80,2013-02-01 21:15:00
2:35 PM,23.0,8.6,54,30.25,10.0,East,5.8,-,N/A,,Clear,90,2013-02-01 21:35:00
3:15 PM,26.6,15.8,64,30.24,10.0,ENE,5.8,-,N/A,,Clear,70,2013-02-01 22:15:00
3:35 PM,28.4,17.6,64,30.25,10.0,NNE,4.6,-,N/A,,Clear,30,2013-02-01 22:35:00
4:35 PM,26.6,14.0,59,30.26,10.0,NNW,5.8,-,N/A,,Clear,330,2013-02-01 23:35:00
4:55 PM,23.0,8.6,54,30.26,10.0,SE,5.8,-,N/A,,Clear,130,2013-02-01 23:55:00
5:15 PM,23.0,12.2,63,30.27,10.0,Calm,Calm,-,N/A,,Clear,0,2013-02-02 00:15:00
5:35 PM,21.2,12.2,68,30.27,10.0,Calm,Calm,-,N/A,,Clear,0,2013-02-02 00:35:00
5:55 PM,21.2,12.2,68,30.27,10.0,North,5.8,-,N/A,,Clear,10,2013-02-02 00:55:00
6:15 PM,21.2,12.2,68,30.29,10.0,NNW,3.5,-,N/A,,Clear,330,2013-02-02 01:15:00
6:35 PM,19.4,12.2,74,30.29,10.0,Calm,Calm,-,N/A,,Partly Cloudy,0,2013-02-02 01:35:00
7:35 PM,14.0,5.0,67,30.32,10.0,Calm,Calm,-,N/A,,Clear,0,2013-02-02 02:35:00
7:55 PM,15.8,8.6,73,30.33,10.0,Calm,Calm,-,N/A,,Clear,0,2013-02-02 02:55:00
8:15 PM,14.0,6.8,73,30.33,10.0,Calm,Calm,-,N/A,,Clear,0,2013-02-02 03:15:00
8:35 PM,12.2,3.2,67,30.34,10.0,Calm,Calm,-,N/A,,Clear,0,2013-02-02 03:35:00
8:55 PM,10.4,8.6,92,30.34,10.0,ENE,3.5,-,N/A,,Clear,60,2013-02-02 03:55:00
9:15 PM,10.4,1.4,67,30.35,10.0,ENE,4.6,-,N/A,,Clear,70,2013-02-02 04:15:00
9:35 PM,10.4,-0.4,62,30.37,10.0,Calm,Calm,-,N/A,,Clear,0,2013-02-02 04:35:00
9:55 PM,8.6,8.6,100,30.37,10.0,Calm,Calm,-,N/A,,Clear,0,2013-02-02 04:55:00
10:15 PM,6.8,-4.0,61,30.38,10.0,Calm,Calm,-,N/A,,Clear,0,2013-02-02 05:15:00
10:35 PM,6.8,3.2,85,30.39,10.0,ENE,5.8,-,N/A,,Clear,70,2013-02-02 05:35:00
10:55 PM,6.8,1.4,79,30.39,9.0,Calm,Calm,-,N/A,,Clear,0,2013-02-02 05:55:00
11:15 PM,5.0,-0.4,78,30.40,10.0,Calm,Calm,-,N/A,,Clear,0,2013-02-02 06:15:00
11:35 PM,5.0,1.4,85,30.40,10.0,NE,4.6,-,N/A,,Clear,40,2013-02-02 06:35:00
11:55 PM,1.4,-4.0,78,30.40,10.0,Calm,Calm,-,N/A,,Clear,0,2013-02-02 06:55:00